createdAt,value
2022-10-05T00:00:05.420Z,95.27
2022-10-05T00:03:13.469Z,94.59
2022-10-05T00:06:18.782Z,94.44
2022-10-05T00:09:23.755Z,94.76
2022-10-05T00:12:30.153Z,94.97
2022-10-05T00:15:38.610Z,95.12
2022-10-05T00:18:43.653Z,94.96
2022-10-05T00:21:49.023Z,95.81
2022-10-05T00:25:01.954Z,95.75
2022-10-05T00:28:12.594Z,95.92
2022-10-05T00:31:23.184Z,95.30
2022-10-05T00:34:28.155Z,94.74
2022-10-05T00:37:33.189Z,94.44
2022-10-05T00:40:57.519Z,94.48
2022-10-05T00:44:30.291Z,94.46
2022-10-05T00:47:51.793Z,93.93
2022-10-05T00:51:18.623Z,93.90
2022-10-05T00:54:31.868Z,93.77
2022-10-05T00:57:53.328Z,94.58
2022-10-05T01:01:08.778Z,94.31
2022-10-05T01:04:22.799Z,92.97
2022-10-05T01:07:39.266Z,93.44
2022-10-05T01:10:50.458Z,93.20
2022-10-05T01:14:06.057Z,92.74
2022-10-05T01:17:20.582Z,93.12
2022-10-05T01:20:38.074Z,93.34
2022-10-05T01:24:11.923Z,93.50
2022-10-05T01:27:23.591Z,94.36
2022-10-05T01:30:40.083Z,94.16
2022-10-05T01:33:54.509Z,93.72
2022-10-05T01:37:04.450Z,93.93
2022-10-05T01:40:14.635Z,94.30
2022-10-05T01:43:29.870Z,94.78
2022-10-05T01:46:40.575Z,94.54
2022-10-05T01:49:51.833Z,94.13
2022-10-05T01:53:07.780Z,94.80
2022-10-05T01:56:21.463Z,94.47
2022-10-05T01:59:39.047Z,94.36
2022-10-05T02:02:50.339Z,93.97
2022-10-05T02:06:00.759Z,93.34
2022-10-05T02:09:10.704Z,92.92
2022-10-05T02:12:19.937Z,92.77
2022-10-05T02:15:29.383Z,92.61
2022-10-05T02:18:42.771Z,93.12
2022-10-05T02:21:50.977Z,92.75
2022-10-05T02:24:59.532Z,92.67
2022-10-05T02:28:10.425Z,93.30
2022-10-05T02:31:18.747Z,93.76
2022-10-05T02:34:31.059Z,93.10
2022-10-05T02:37:46.449Z,92.54
2022-10-05T02:41:00.434Z,93.41
2022-10-05T02:44:16.379Z,93.94
2022-10-05T02:47:33.954Z,94.29
2022-10-05T02:50:50.151Z,94.54
2022-10-05T02:54:08.948Z,94.72
2022-10-05T02:57:25.118Z,95.43
2022-10-05T03:00:34.489Z,95.70
2022-10-05T03:03:47.546Z,95.69
2022-10-05T03:07:03.252Z,95.80
2022-10-05T03:10:14.229Z,94.65
2022-10-05T03:13:28.324Z,94.37
2022-10-05T03:16:46.175Z,93.86
2022-10-05T03:20:15.290Z,93.62
2022-10-05T03:23:29.704Z,93.48
2022-10-05T03:26:46.909Z,93.10
2022-10-05T03:29:58.857Z,93.12
2022-10-05T03:33:11.345Z,92.61
2022-10-05T03:36:23.665Z,92.62
2022-10-05T03:39:35.649Z,93.51
2022-10-05T03:42:51.554Z,93.30
2022-10-05T03:46:02.408Z,92.83
2022-10-05T03:49:14.003Z,92.81
2022-10-05T03:52:22.085Z,92.96
2022-10-05T03:55:32.700Z,92.41
2022-10-05T03:58:43.226Z,92.37
2022-10-05T04:01:51.577Z,92.53
2022-10-05T04:04:58.460Z,92.03
2022-10-05T04:08:08.251Z,92.31
2022-10-05T04:11:15.485Z,92.40
2022-10-05T04:14:23.669Z,92.03
2022-10-05T04:17:34.241Z,92.94
2022-10-05T04:20:43.171Z,93.22
2022-10-05T04:23:52.158Z,92.80
2022-10-05T04:26:58.741Z,92.39
2022-10-05T04:30:08.097Z,92.78
2022-10-05T04:33:13.661Z,92.12
2022-10-05T04:36:23.902Z,93.21
2022-10-05T04:39:40.973Z,93.36
2022-10-05T04:42:56.786Z,93.62
2022-10-05T04:46:15.940Z,93.87
2022-10-05T04:49:32.407Z,93.69
2022-10-05T04:52:45.846Z,93.65
2022-10-05T04:55:57.478Z,93.07
2022-10-05T04:59:17.983Z,93.32
2022-10-05T05:02:33.231Z,93.31
2022-10-05T05:06:12.069Z,93.21
2022-10-05T05:09:27.555Z,93.78
2022-10-05T05:12:36.891Z,93.34
2022-10-05T05:15:48.655Z,94.27
2022-10-05T05:19:06.496Z,94.19
2022-10-05T05:22:18.658Z,94.52
2022-10-05T05:25:37.513Z,94.58
2022-10-05T05:28:47.035Z,94.28
2022-10-05T05:31:58.682Z,93.38
2022-10-05T05:35:17.213Z,93.54
2022-10-05T05:38:29.205Z,93.04
2022-10-05T05:41:38.461Z,93.07
2022-10-05T05:44:44.795Z,93.09
2022-10-05T05:47:53.752Z,93.38
2022-10-05T05:51:01.572Z,93.46
2022-10-05T05:54:19.023Z,93.42
2022-10-05T05:57:28.013Z,94.05
2022-10-05T06:00:36.728Z,93.99
2022-10-05T06:03:45.789Z,94.04
2022-10-05T06:06:52.130Z,93.46
2022-10-05T06:09:59.744Z,92.12
2022-10-05T06:13:07.366Z,87.28
2022-10-05T06:16:18.654Z,82.66
2022-10-05T06:19:24.893Z,78.36
2022-10-05T06:22:34.417Z,73.43
2022-10-05T06:25:45.493Z,68.99
2022-10-05T06:28:53.029Z,65.22
2022-10-05T06:32:06.579Z,62.97
2022-10-05T06:35:23.540Z,60.25
2022-10-05T06:38:45.480Z,57.62
2022-10-05T06:42:02.100Z,54.89
2022-10-05T06:45:12.561Z,52.52
2022-10-05T06:48:26.173Z,49.82
2022-10-05T06:51:39.748Z,48.71
2022-10-05T06:55:00.948Z,49.19
2022-10-05T06:58:18.065Z,53.05
2022-10-05T07:01:37.208Z,58.37
2022-10-05T07:05:13.267Z,63.80
2022-10-05T07:08:25.716Z,67.71
2022-10-05T07:11:43.725Z,71.00
2022-10-05T07:15:05.875Z,73.92
2022-10-05T07:18:40.121Z,77.15
2022-10-05T07:21:58.396Z,78.80
2022-10-05T07:25:17.953Z,79.92
2022-10-05T07:28:38.852Z,81.58
2022-10-05T07:31:55.366Z,82.81
2022-10-05T07:35:33.070Z,83.71
2022-10-05T07:38:46.813Z,84.56
2022-10-05T07:42:08.478Z,85.21
2022-10-05T07:45:26.444Z,86.24
2022-10-05T07:48:46.882Z,86.61
2022-10-05T07:51:57.980Z,86.84
2022-10-05T07:55:24.662Z,86.92
2022-10-05T07:59:06.812Z,86.95
2022-10-05T08:02:26.597Z,87.44
2022-10-05T08:05:39.597Z,88.31
2022-10-05T08:08:56.456Z,88.29
2022-10-05T08:12:19.908Z,87.80
2022-10-05T08:15:35.743Z,88.09
2022-10-05T08:18:57.222Z,88.48
2022-10-05T08:22:10.846Z,88.09
2022-10-05T08:25:29.696Z,88.12
2022-10-05T08:28:42.761Z,87.52
2022-10-05T08:32:03.634Z,87.54
2022-10-05T08:35:30.692Z,87.01
2022-10-05T08:38:42.162Z,87.49
2022-10-05T08:42:20.833Z,86.85
2022-10-05T08:45:52.156Z,86.30
2022-10-05T08:49:14.445Z,86.90
2022-10-05T08:52:30.491Z,86.50
2022-10-05T08:55:49.154Z,86.20
2022-10-05T08:59:23.716Z,85.17
2022-10-05T09:02:47.564Z,82.98
2022-10-05T09:06:25.457Z,82.33
2022-10-05T09:10:03.821Z,81.24
2022-10-05T09:13:32.087Z,78.50
2022-10-05T09:17:21.695Z,77.01
2022-10-05T09:20:33.281Z,75.29
2022-10-05T09:23:45.491Z,74.27
2022-10-05T09:27:08.924Z,72.91
2022-10-05T09:30:21.062Z,73.43
2022-10-05T09:34:05.862Z,72.11
2022-10-05T09:37:52.551Z,70.75
2022-10-05T09:41:30.776Z,69.83
2022-10-05T09:45:21.314Z,67.46
2022-10-05T09:48:58.790Z,67.77
2022-10-05T09:52:18.920Z,67.51
2022-10-05T09:55:42.345Z,67.26
2022-10-05T09:59:24.095Z,66.93
2022-10-05T10:03:07.767Z,66.68
2022-10-05T10:06:29.913Z,66.39
2022-10-05T10:09:48.356Z,65.32
2022-10-05T10:13:14.935Z,65.76
2022-10-05T10:17:00.301Z,65.09
2022-10-05T10:20:48.742Z,65.23
2022-10-05T10:24:45.697Z,64.95
2022-10-05T10:28:45.034Z,65.16
2022-10-05T10:33:03.656Z,65.10
2022-10-05T10:36:24.893Z,65.29
2022-10-05T10:44:23.282Z,64.89
2022-10-05T10:48:04.678Z,65.40
2022-10-05T10:51:28.068Z,64.52
2022-10-05T10:55:11.787Z,64.52
2022-10-05T10:58:48.495Z,64.82
2022-10-05T11:02:15.367Z,64.59
2022-10-05T11:05:34.372Z,64.09
2022-10-05T11:09:04.380Z,64.24
2022-10-05T11:12:45.751Z,65.33
2022-10-05T11:16:33.400Z,65.22
2022-10-05T11:20:04.110Z,64.11
2022-10-05T11:23:35.332Z,64.27
2022-10-05T11:27:16.233Z,64.22
2022-10-05T11:30:51.213Z,62.96
2022-10-05T11:34:33.101Z,64.63
2022-10-05T11:38:10.955Z,64.61
2022-10-05T11:41:45.913Z,64.49
2022-10-05T11:45:34.690Z,63.04
2022-10-05T11:48:56.825Z,62.73
2022-10-05T11:52:13.852Z,61.31
2022-10-05T11:55:29.051Z,59.65
2022-10-05T11:58:46.781Z,59.67
2022-10-05T12:02:24.564Z,58.62
2022-10-05T12:05:41.279Z,57.57
2022-10-05T12:09:20.126Z,57.01
2022-10-05T12:12:39.044Z,57.50
2022-10-05T12:15:58.800Z,58.20
2022-10-05T12:19:23.511Z,57.47
2022-10-05T12:22:40.576Z,55.30
2022-10-05T12:25:53.221Z,55.77
2022-10-05T12:29:21.502Z,56.22
2022-10-05T12:37:40.917Z,54.12
2022-10-05T12:41:16.800Z,52.91
2022-10-05T12:44:47.636Z,53.35
2022-10-05T12:48:08.903Z,54.07
2022-10-05T12:51:27.868Z,54.23
2022-10-05T12:54:49.904Z,52.28
2022-10-05T12:58:09.873Z,51.64
2022-10-05T13:01:31.710Z,49.91
2022-10-05T13:04:54.694Z,50.79
2022-10-05T13:12:20.976Z,49.86
2022-10-05T13:15:42.751Z,50.51
2022-10-05T13:19:07.411Z,52.04
2022-10-05T13:22:33.934Z,52.19
2022-10-05T13:25:46.814Z,49.92
2022-10-05T13:29:01.369Z,49.94
2022-10-05T13:32:31.256Z,55.48
2022-10-05T13:35:54.713Z,57.92
2022-10-05T13:39:07.079Z,59.24
2022-10-05T13:42:18.779Z,59.27
2022-10-05T13:45:42.328Z,60.79
2022-10-05T13:49:07.598Z,59.98
2022-10-05T13:52:24.503Z,61.40
2022-10-05T13:55:40.386Z,60.78
2022-10-05T13:58:58.459Z,60.69
2022-10-05T14:02:09.755Z,60.90
2022-10-05T14:05:25.733Z,60.84
2022-10-05T14:08:41.476Z,59.65
2022-10-05T14:11:58.549Z,59.19
2022-10-05T14:15:27.068Z,56.95
2022-10-05T14:18:38.702Z,55.95
2022-10-05T14:21:57.882Z,50.57
2022-10-05T14:25:18.480Z,49.32
2022-10-05T14:28:31.010Z,49.56
2022-10-05T14:31:41.441Z,50.08
2022-10-05T14:34:59.501Z,50.10
2022-10-05T14:38:22.770Z,51.65
2022-10-05T14:45:40.263Z,53.71
2022-10-05T14:49:39.198Z,55.39
2022-10-05T14:53:54.148Z,59.16
2022-10-05T14:57:12.966Z,60.93
2022-10-05T15:00:44.587Z,62.62
2022-10-05T15:04:15.063Z,64.28
2022-10-05T15:07:36.347Z,65.87
2022-10-05T15:11:04.872Z,66.77
2022-10-05T15:14:28.350Z,68.03
2022-10-05T15:18:01.352Z,67.03
2022-10-05T15:25:14.262Z,67.42
2022-10-05T15:28:48.099Z,68.91
2022-10-05T15:32:13.233Z,69.57
2022-10-05T15:35:47.805Z,69.75
2022-10-05T15:39:18.883Z,71.19
2022-10-05T15:42:46.659Z,73.89
2022-10-05T15:46:38.807Z,76.26
2022-10-05T15:49:56.558Z,77.75
2022-10-05T15:53:13.507Z,78.37
2022-10-05T15:56:39.016Z,80.07
2022-10-05T16:00:01.236Z,80.58
2022-10-05T16:03:24.517Z,81.08
2022-10-05T16:07:09.697Z,81.89
2022-10-05T16:10:30.122Z,82.31
2022-10-05T16:17:44.603Z,83.69
2022-10-05T16:21:01.972Z,84.17
2022-10-05T16:24:26.855Z,84.68
2022-10-05T16:27:46.563Z,84.80
2022-10-05T16:31:10.917Z,85.11
2022-10-05T16:34:32.077Z,85.46
2022-10-05T16:37:48.881Z,85.69
2022-10-05T16:41:08.678Z,85.85
2022-10-05T16:44:26.299Z,85.67
2022-10-05T16:47:43.934Z,86.05
2022-10-05T16:51:01.262Z,86.03
2022-10-05T16:54:23.291Z,86.06
2022-10-05T16:57:38.883Z,85.72
2022-10-05T17:01:05.568Z,85.03
2022-10-05T17:04:28.563Z,84.73
2022-10-05T17:08:06.187Z,84.21
2022-10-05T17:11:34.949Z,83.27
2022-10-05T17:14:55.168Z,82.12
2022-10-05T17:18:40.349Z,81.94
2022-10-05T17:21:55.536Z,81.41
2022-10-05T17:25:11.658Z,80.84
2022-10-05T17:28:39.172Z,80.79
2022-10-05T17:32:16.982Z,80.61
2022-10-05T17:35:44.240Z,80.53
2022-10-05T17:38:57.293Z,80.68
2022-10-05T17:42:35.986Z,80.70
2022-10-05T17:46:02.346Z,80.87
2022-10-05T17:49:28.151Z,80.90
2022-10-05T17:52:51.868Z,81.51
2022-10-05T17:56:12.217Z,81.28
2022-10-05T17:59:47.264Z,80.40
2022-10-05T18:02:58.887Z,80.77
2022-10-05T18:06:52.954Z,80.70
2022-10-05T18:10:18.082Z,80.95
2022-10-05T18:13:42.780Z,81.17
2022-10-05T18:17:04.924Z,81.23
2022-10-05T18:20:20.419Z,80.91
2022-10-05T18:23:36.930Z,80.45
2022-10-05T18:27:00.376Z,79.85
2022-10-05T18:30:18.777Z,76.27
2022-10-05T18:34:03.185Z,72.77
2022-10-05T18:37:34.159Z,70.83
2022-10-05T18:44:47.266Z,68.00
2022-10-05T18:48:22.361Z,67.66
2022-10-05T18:51:53.260Z,66.81
2022-10-05T18:55:24.482Z,66.95
2022-10-05T18:58:57.300Z,66.83
2022-10-05T19:02:27.037Z,66.94
2022-10-05T19:05:48.650Z,67.32
2022-10-05T19:09:12.448Z,67.00
2022-10-05T19:12:41.244Z,67.11
2022-10-05T19:16:07.417Z,66.83
2022-10-05T19:19:37.397Z,68.08
2022-10-05T19:23:00.923Z,69.44
2022-10-05T19:26:19.538Z,70.93
2022-10-05T19:29:51.491Z,72.16
2022-10-05T19:33:24.995Z,73.28
2022-10-05T19:36:53.897Z,73.63
2022-10-05T19:40:09.768Z,74.69
2022-10-05T19:43:37.254Z,75.40
2022-10-05T19:46:59.214Z,75.91
2022-10-05T19:50:29.091Z,76.23
2022-10-05T19:53:43.139Z,76.83
2022-10-05T19:56:53.498Z,76.97
2022-10-05T20:00:05.891Z,77.08
2022-10-05T20:03:28.099Z,77.79
2022-10-05T20:07:05.228Z,77.96
2022-10-05T20:10:29.865Z,78.35
2022-10-05T20:13:37.360Z,78.42
2022-10-05T20:16:59.661Z,78.65
2022-10-05T20:20:40.026Z,79.18
2022-10-05T20:23:51.803Z,79.33
2022-10-05T20:27:16.068Z,79.61
2022-10-05T20:30:23.269Z,79.52
2022-10-05T20:33:33.812Z,79.94
2022-10-05T20:36:43.234Z,79.77
2022-10-05T20:39:49.042Z,80.32
2022-10-05T20:42:58.320Z,80.05
2022-10-05T20:46:09.433Z,80.18
2022-10-05T20:49:27.034Z,80.29
2022-10-05T20:52:40.798Z,80.68
2022-10-05T20:55:46.912Z,80.92
2022-10-05T20:58:53.469Z,81.15
2022-10-05T21:02:13.424Z,81.90
2022-10-05T21:05:19.871Z,82.23
2022-10-05T21:08:29.696Z,82.14
2022-10-05T21:11:38.271Z,82.45
2022-10-05T21:14:46.993Z,82.81
2022-10-05T21:18:00.072Z,82.76
2022-10-05T21:21:08.570Z,83.05
2022-10-05T21:24:18.088Z,82.80
2022-10-05T21:27:26.307Z,82.08
2022-10-05T21:30:35.630Z,80.85
2022-10-05T21:33:45.711Z,80.56
2022-10-05T21:36:57.382Z,80.18
2022-10-05T21:40:05.727Z,79.68
2022-10-05T21:43:13.848Z,79.67
2022-10-05T21:46:42.609Z,79.84
2022-10-05T21:49:57.779Z,80.26
2022-10-05T21:53:08.141Z,80.42
2022-10-05T21:56:21.318Z,81.15
2022-10-05T21:59:35.093Z,80.96
2022-10-05T22:02:42.071Z,80.70
2022-10-05T22:05:53.088Z,80.78
2022-10-05T22:09:00.443Z,80.87
2022-10-05T22:12:09.945Z,81.41
2022-10-05T22:15:17.428Z,81.77
2022-10-05T22:18:23.092Z,81.67
2022-10-05T22:21:30.048Z,81.84
2022-10-05T22:24:35.743Z,81.90
2022-10-05T22:27:43.759Z,82.11
2022-10-05T22:30:58.313Z,82.21
2022-10-05T22:34:06.794Z,82.17
2022-10-05T22:37:14.048Z,82.78
2022-10-05T22:40:32.800Z,82.59
2022-10-05T22:47:14.273Z,83.10
2022-10-05T22:50:20.941Z,83.38
2022-10-05T22:53:27.735Z,83.28
2022-10-05T22:56:37.000Z,82.81
2022-10-05T22:59:45.709Z,82.93
2022-10-05T23:02:52.162Z,82.54
2022-10-05T23:06:05.325Z,83.28
2022-10-05T23:09:11.650Z,83.04
2022-10-05T23:12:18.464Z,83.34
2022-10-05T23:15:26.479Z,83.46
2022-10-05T23:18:34.741Z,83.95
2022-10-05T23:21:42.134Z,84.24
2022-10-05T23:24:48.089Z,85.23
2022-10-05T23:27:56.582Z,85.11
2022-10-05T23:31:01.067Z,85.23
2022-10-05T23:34:04.098Z,84.88
2022-10-05T23:37:07.098Z,84.77
2022-10-05T23:40:12.945Z,85.66
2022-10-05T23:43:15.957Z,85.88
2022-10-05T23:46:20.317Z,85.60
2022-10-05T23:49:23.954Z,86.23
2022-10-05T23:52:26.889Z,86.63
2022-10-05T23:55:29.613Z,86.78
2022-10-05T23:58:34.539Z,86.37
